sensor_id;sensor_type;location;lat;lon;timestamp;P1;durP1;ratioP1;P2;durP2;ratioP2
40995;SDS011;26723;57.478;12.066;2022-12-10T00:02:22;2.20;;;0.87;;
40995;SDS011;26723;57.478;12.066;2022-12-10T00:05:32;1.83;;;1.60;;
40995;SDS011;26723;57.478;12.066;2022-12-10T00:08:41;1.17;;;1.17;;
40995;SDS011;26723;57.478;12.066;2022-12-10T00:11:51;1.40;;;1.30;;
40995;SDS011;26723;57.478;12.066;2022-12-10T00:15:00;1.10;;;1.10;;
40995;SDS011;26723;57.478;12.066;2022-12-10T00:18:08;1.30;;;1.20;;
40995;SDS011;26723;57.478;12.066;2022-12-10T00:21:17;3.77;;;1.20;;
40995;SDS011;26723;57.478;12.066;2022-12-10T00:24:27;1.30;;;1.13;;
40995;SDS011;26723;57.478;12.066;2022-12-10T00:27:37;1.00;;;1.00;;
40995;SDS011;26723;57.478;12.066;2022-12-10T00:30:45;2.00;;;1.33;;
40995;SDS011;26723;57.478;12.066;2022-12-10T00:33:54;1.80;;;1.70;;
40995;SDS011;26723;57.478;12.066;2022-12-10T00:37:03;1.43;;;1.20;;
40995;SDS011;26723;57.478;12.066;2022-12-10T00:40:11;1.10;;;1.00;;
40995;SDS011;26723;57.478;12.066;2022-12-10T00:43:21;1.50;;;1.33;;
40995;SDS011;26723;57.478;12.066;2022-12-10T00:46:29;1.13;;;1.10;;
40995;SDS011;26723;57.478;12.066;2022-12-10T00:49:38;3.90;;;1.60;;
40995;SDS011;26723;57.478;12.066;2022-12-10T00:52:46;3.60;;;1.47;;
40995;SDS011;26723;57.478;12.066;2022-12-10T00:55:54;1.77;;;1.67;;
40995;SDS011;26723;57.478;12.066;2022-12-10T00:59:05;1.40;;;1.30;;
40995;SDS011;26723;57.478;12.066;2022-12-10T01:02:13;1.67;;;1.57;;
40995;SDS011;26723;57.478;12.066;2022-12-10T01:05:22;1.60;;;1.50;;
40995;SDS011;26723;57.478;12.066;2022-12-10T01:08:31;1.63;;;1.50;;
40995;SDS011;26723;57.478;12.066;2022-12-10T01:11:41;1.33;;;1.30;;
40995;SDS011;26723;57.478;12.066;2022-12-10T01:14:51;1.73;;;1.40;;
40995;SDS011;26723;57.478;12.066;2022-12-10T01:18:00;1.53;;;1.47;;
40995;SDS011;26723;57.478;12.066;2022-12-10T01:21:09;2.00;;;1.60;;
40995;SDS011;26723;57.478;12.066;2022-12-10T01:24:20;1.57;;;1.50;;
40995;SDS011;26723;57.478;12.066;2022-12-10T01:27:28;2.30;;;1.47;;
40995;SDS011;26723;57.478;12.066;2022-12-10T01:30:38;1.73;;;1.57;;
40995;SDS011;26723;57.478;12.066;2022-12-10T01:33:48;1.80;;;1.43;;
40995;SDS011;26723;57.478;12.066;2022-12-10T01:36:58;1.93;;;1.70;;
40995;SDS011;26723;57.478;12.066;2022-12-10T01:40:06;2.07;;;1.90;;
40995;SDS011;26723;57.478;12.066;2022-12-10T01:43:16;1.73;;;1.60;;
40995;SDS011;26723;57.478;12.066;2022-12-10T01:46:27;1.80;;;1.50;;
40995;SDS011;26723;57.478;12.066;2022-12-10T01:49:38;1.70;;;1.60;;
40995;SDS011;26723;57.478;12.066;2022-12-10T01:52:51;2.27;;;1.30;;
40995;SDS011;26723;57.478;12.066;2022-12-10T01:55:59;2.30;;;1.73;;
40995;SDS011;26723;57.478;12.066;2022-12-10T01:59:08;1.67;;;1.57;;
40995;SDS011;26723;57.478;12.066;2022-12-10T02:02:22;1.30;;;1.20;;
40995;SDS011;26723;57.478;12.066;2022-12-10T02:05:49;1.30;;;1.30;;
40995;SDS011;26723;57.478;12.066;2022-12-10T02:09:09;1.30;;;1.30;;
40995;SDS011;26723;57.478;12.066;2022-12-10T02:12:25;1.40;;;1.30;;
40995;SDS011;26723;57.478;12.066;2022-12-10T02:15:41;1.47;;;1.37;;
40995;SDS011;26723;57.478;12.066;2022-12-10T02:18:55;1.23;;;1.23;;
40995;SDS011;26723;57.478;12.066;2022-12-10T02:22:06;1.30;;;1.20;;
40995;SDS011;26723;57.478;12.066;2022-12-10T02:25:18;1.10;;;1.10;;
40995;SDS011;26723;57.478;12.066;2022-12-10T02:28:38;1.43;;;1.33;;
40995;SDS011;26723;57.478;12.066;2022-12-10T02:31:55;4.67;;;1.13;;
40995;SDS011;26723;57.478;12.066;2022-12-10T02:35:10;1.20;;;1.20;;
40995;SDS011;26723;57.478;12.066;2022-12-10T02:38:22;0.90;;;0.90;;
40995;SDS011;26723;57.478;12.066;2022-12-10T02:41:39;1.20;;;1.20;;
40995;SDS011;26723;57.478;12.066;2022-12-10T02:44:50;0.90;;;0.90;;
40995;SDS011;26723;57.478;12.066;2022-12-10T02:48:03;1.23;;;1.13;;
40995;SDS011;26723;57.478;12.066;2022-12-10T02:51:18;1.10;;;1.00;;
40995;SDS011;26723;57.478;12.066;2022-12-10T02:54:38;1.10;;;1.10;;
40995;SDS011;26723;57.478;12.066;2022-12-10T02:57:57;4.43;;;1.10;;
40995;SDS011;26723;57.478;12.066;2022-12-10T03:01:16;1.10;;;1.00;;
40995;SDS011;26723;57.478;12.066;2022-12-10T03:04:36;1.00;;;1.00;;
40995;SDS011;26723;57.478;12.066;2022-12-10T03:07:53;0.70;;;0.70;;
40995;SDS011;26723;57.478;12.066;2022-12-10T03:11:07;1.10;;;1.10;;
40995;SDS011;26723;57.478;12.066;2022-12-10T03:14:20;0.90;;;0.90;;
40995;SDS011;26723;57.478;12.066;2022-12-10T03:17:30;1.30;;;1.20;;
40995;SDS011;26723;57.478;12.066;2022-12-10T03:20:41;1.13;;;1.13;;
40995;SDS011;26723;57.478;12.066;2022-12-10T03:23:52;0.90;;;0.90;;
40995;SDS011;26723;57.478;12.066;2022-12-10T03:27:01;1.40;;;1.30;;
40995;SDS011;26723;57.478;12.066;2022-12-10T03:30:11;1.10;;;1.10;;
40995;SDS011;26723;57.478;12.066;2022-12-10T03:33:19;0.90;;;0.90;;
40995;SDS011;26723;57.478;12.066;2022-12-10T03:36:29;1.13;;;1.13;;
40995;SDS011;26723;57.478;12.066;2022-12-10T03:39:39;1.13;;;1.13;;
40995;SDS011;26723;57.478;12.066;2022-12-10T03:42:48;1.27;;;1.17;;
40995;SDS011;26723;57.478;12.066;2022-12-10T03:45:57;1.43;;;1.40;;
40995;SDS011;26723;57.478;12.066;2022-12-10T03:49:05;1.60;;;1.50;;
40995;SDS011;26723;57.478;12.066;2022-12-10T03:52:15;1.43;;;1.33;;
40995;SDS011;26723;57.478;12.066;2022-12-10T03:55:23;2.60;;;1.80;;
40995;SDS011;26723;57.478;12.066;2022-12-10T03:58:31;1.50;;;1.40;;
40995;SDS011;26723;57.478;12.066;2022-12-10T04:01:40;1.50;;;1.40;;
40995;SDS011;26723;57.478;12.066;2022-12-10T04:04:48;1.73;;;1.63;;
40995;SDS011;26723;57.478;12.066;2022-12-10T04:07:58;1.57;;;1.43;;
40995;SDS011;26723;57.478;12.066;2022-12-10T04:11:07;1.33;;;1.10;;
40995;SDS011;26723;57.478;12.066;2022-12-10T04:14:17;1.50;;;1.40;;
40995;SDS011;26723;57.478;12.066;2022-12-10T04:17:42;1.50;;;1.40;;
40995;SDS011;26723;57.478;12.066;2022-12-10T04:20:52;1.40;;;1.30;;
40995;SDS011;26723;57.478;12.066;2022-12-10T04:24:19;1.57;;;1.47;;
40995;SDS011;26723;57.478;12.066;2022-12-10T04:27:46;1.40;;;1.30;;
40995;SDS011;26723;57.478;12.066;2022-12-10T04:30:55;1.33;;;1.30;;
40995;SDS011;26723;57.478;12.066;2022-12-10T04:34:03;1.40;;;1.30;;
40995;SDS011;26723;57.478;12.066;2022-12-10T04:37:12;1.40;;;1.30;;
40995;SDS011;26723;57.478;12.066;2022-12-10T04:40:23;1.73;;;1.60;;
40995;SDS011;26723;57.478;12.066;2022-12-10T04:43:32;1.50;;;1.40;;
40995;SDS011;26723;57.478;12.066;2022-12-10T04:46:40;1.60;;;1.50;;
40995;SDS011;26723;57.478;12.066;2022-12-10T04:49:48;1.43;;;1.37;;
40995;SDS011;26723;57.478;12.066;2022-12-10T04:52:57;1.33;;;1.23;;
40995;SDS011;26723;57.478;12.066;2022-12-10T04:56:07;2.00;;;1.73;;
40995;SDS011;26723;57.478;12.066;2022-12-10T04:59:15;1.67;;;1.57;;
40995;SDS011;26723;57.478;12.066;2022-12-10T05:02:23;1.93;;;1.77;;
40995;SDS011;26723;57.478;12.066;2022-12-10T05:05:33;2.07;;;1.90;;
40995;SDS011;26723;57.478;12.066;2022-12-10T05:08:41;1.43;;;1.33;;
40995;SDS011;26723;57.478;12.066;2022-12-10T05:11:51;1.70;;;1.60;;
40995;SDS011;26723;57.478;12.066;2022-12-10T05:14:59;1.63;;;1.53;;
40995;SDS011;26723;57.478;12.066;2022-12-10T05:18:08;1.73;;;1.63;;
40995;SDS011;26723;57.478;12.066;2022-12-10T05:21:18;1.83;;;1.63;;
40995;SDS011;26723;57.478;12.066;2022-12-10T05:24:27;1.33;;;1.23;;
40995;SDS011;26723;57.478;12.066;2022-12-10T05:27:35;1.63;;;1.53;;
40995;SDS011;26723;57.478;12.066;2022-12-10T05:30:44;1.60;;;1.50;;
40995;SDS011;26723;57.478;12.066;2022-12-10T05:33:52;1.30;;;1.20;;
40995;SDS011;26723;57.478;12.066;2022-12-10T05:37:01;2.07;;;1.97;;
40995;SDS011;26723;57.478;12.066;2022-12-10T05:40:10;2.40;;;1.43;;
40995;SDS011;26723;57.478;12.066;2022-12-10T05:43:21;1.63;;;1.53;;
40995;SDS011;26723;57.478;12.066;2022-12-10T05:46:30;2.07;;;1.67;;
40995;SDS011;26723;57.478;12.066;2022-12-10T05:49:40;1.87;;;1.40;;
40995;SDS011;26723;57.478;12.066;2022-12-10T05:52:56;1.10;;;1.10;;
40995;SDS011;26723;57.478;12.066;2022-12-10T05:56:05;1.97;;;1.87;;
40995;SDS011;26723;57.478;12.066;2022-12-10T05:59:16;1.80;;;1.70;;
40995;SDS011;26723;57.478;12.066;2022-12-10T06:02:24;2.20;;;2.00;;
40995;SDS011;26723;57.478;12.066;2022-12-10T06:05:35;1.53;;;1.43;;
40995;SDS011;26723;57.478;12.066;2022-12-10T06:08:44;3.00;;;1.80;;
40995;SDS011;26723;57.478;12.066;2022-12-10T06:11:52;1.70;;;1.60;;
40995;SDS011;26723;57.478;12.066;2022-12-10T06:15:02;2.07;;;1.37;;
40995;SDS011;26723;57.478;12.066;2022-12-10T06:18:11;2.97;;;1.80;;
40995;SDS011;26723;57.478;12.066;2022-12-10T06:21:19;1.27;;;1.27;;
40995;SDS011;26723;57.478;12.066;2022-12-10T06:24:28;1.63;;;1.53;;
40995;SDS011;26723;57.478;12.066;2022-12-10T06:27:36;1.40;;;1.30;;
40995;SDS011;26723;57.478;12.066;2022-12-10T06:30:46;2.03;;;1.73;;
40995;SDS011;26723;57.478;12.066;2022-12-10T06:33:54;1.60;;;1.50;;
40995;SDS011;26723;57.478;12.066;2022-12-10T06:37:03;1.43;;;1.33;;
40995;SDS011;26723;57.478;12.066;2022-12-10T06:40:11;1.53;;;1.30;;
40995;SDS011;26723;57.478;12.066;2022-12-10T06:43:20;2.13;;;1.20;;
40995;SDS011;26723;57.478;12.066;2022-12-10T06:46:29;1.17;;;1.17;;
40995;SDS011;26723;57.478;12.066;2022-12-10T06:49:38;1.67;;;1.57;;
40995;SDS011;26723;57.478;12.066;2022-12-10T06:52:46;1.43;;;1.33;;
40995;SDS011;26723;57.478;12.066;2022-12-10T06:56:00;1.73;;;1.60;;
40995;SDS011;26723;57.478;12.066;2022-12-10T06:59:09;1.57;;;1.33;;
40995;SDS011;26723;57.478;12.066;2022-12-10T07:02:19;1.50;;;1.40;;
40995;SDS011;26723;57.478;12.066;2022-12-10T07:05:28;1.17;;;1.07;;
40995;SDS011;26723;57.478;12.066;2022-12-10T07:08:36;1.50;;;1.40;;
40995;SDS011;26723;57.478;12.066;2022-12-10T07:11:44;1.70;;;1.60;;
40995;SDS011;26723;57.478;12.066;2022-12-10T07:14:53;1.17;;;1.17;;
40995;SDS011;26723;57.478;12.066;2022-12-10T07:18:03;1.70;;;1.07;;
40995;SDS011;26723;57.478;12.066;2022-12-10T07:21:14;1.60;;;1.50;;
40995;SDS011;26723;57.478;12.066;2022-12-10T07:24:23;1.83;;;1.73;;
40995;SDS011;26723;57.478;12.066;2022-12-10T07:27:31;2.10;;;1.90;;
40995;SDS011;26723;57.478;12.066;2022-12-10T07:30:39;3.60;;;1.57;;
40995;SDS011;26723;57.478;12.066;2022-12-10T07:33:49;1.70;;;1.60;;
40995;SDS011;26723;57.478;12.066;2022-12-10T07:36:59;2.10;;;1.43;;
40995;SDS011;26723;57.478;12.066;2022-12-10T07:40:08;1.43;;;1.37;;
40995;SDS011;26723;57.478;12.066;2022-12-10T07:43:17;1.50;;;1.40;;
40995;SDS011;26723;57.478;12.066;2022-12-10T07:46:26;1.50;;;1.40;;
40995;SDS011;26723;57.478;12.066;2022-12-10T07:49:37;1.23;;;1.23;;
40995;SDS011;26723;57.478;12.066;2022-12-10T07:52:46;1.03;;;1.03;;
40995;SDS011;26723;57.478;12.066;2022-12-10T07:55:55;1.40;;;1.30;;
40995;SDS011;26723;57.478;12.066;2022-12-10T07:59:03;2.80;;;1.30;;
40995;SDS011;26723;57.478;12.066;2022-12-10T08:02:12;1.17;;;1.13;;
40995;SDS011;26723;57.478;12.066;2022-12-10T08:05:21;2.50;;;1.33;;
40995;SDS011;26723;57.478;12.066;2022-12-10T08:08:30;1.57;;;1.47;;
40995;SDS011;26723;57.478;12.066;2022-12-10T08:11:40;1.60;;;1.50;;
40995;SDS011;26723;57.478;12.066;2022-12-10T08:14:48;2.07;;;1.87;;
40995;SDS011;26723;57.478;12.066;2022-12-10T08:17:56;1.50;;;1.43;;
40995;SDS011;26723;57.478;12.066;2022-12-10T08:21:06;1.87;;;1.53;;
40995;SDS011;26723;57.478;12.066;2022-12-10T08:24:16;1.57;;;1.47;;
40995;SDS011;26723;57.478;12.066;2022-12-10T08:27:24;1.70;;;1.60;;
40995;SDS011;26723;57.478;12.066;2022-12-10T08:30:33;1.60;;;1.50;;
40995;SDS011;26723;57.478;12.066;2022-12-10T08:33:41;2.33;;;2.00;;
40995;SDS011;26723;57.478;12.066;2022-12-10T08:36:51;1.70;;;1.60;;
40995;SDS011;26723;57.478;12.066;2022-12-10T08:39:59;1.77;;;1.67;;
40995;SDS011;26723;57.478;12.066;2022-12-10T08:43:08;1.97;;;1.87;;
40995;SDS011;26723;57.478;12.066;2022-12-10T08:46:16;2.27;;;2.07;;
40995;SDS011;26723;57.478;12.066;2022-12-10T08:49:24;1.53;;;1.43;;
40995;SDS011;26723;57.478;12.066;2022-12-10T08:52:34;1.67;;;1.57;;
40995;SDS011;26723;57.478;12.066;2022-12-10T08:55:42;2.07;;;1.87;;
40995;SDS011;26723;57.478;12.066;2022-12-10T08:58:54;1.60;;;1.50;;
40995;SDS011;26723;57.478;12.066;2022-12-10T09:02:03;1.60;;;1.50;;
40995;SDS011;26723;57.478;12.066;2022-12-10T09:05:11;1.67;;;1.57;;
40995;SDS011;26723;57.478;12.066;2022-12-10T09:08:21;1.80;;;1.70;;
40995;SDS011;26723;57.478;12.066;2022-12-10T09:11:31;1.50;;;1.40;;
40995;SDS011;26723;57.478;12.066;2022-12-10T09:14:40;2.10;;;1.90;;
40995;SDS011;26723;57.478;12.066;2022-12-10T09:17:51;1.90;;;1.80;;
40995;SDS011;26723;57.478;12.066;2022-12-10T09:21:03;1.90;;;1.80;;
40995;SDS011;26723;57.478;12.066;2022-12-10T09:24:13;2.00;;;1.80;;
40995;SDS011;26723;57.478;12.066;2022-12-10T09:27:22;2.97;;;1.87;;
40995;SDS011;26723;57.478;12.066;2022-12-10T09:30:30;1.83;;;1.73;;
40995;SDS011;26723;57.478;12.066;2022-12-10T09:33:39;1.60;;;1.50;;
40995;SDS011;26723;57.478;12.066;2022-12-10T09:36:48;1.80;;;1.70;;
40995;SDS011;26723;57.478;12.066;2022-12-10T09:39:58;2.00;;;1.80;;
40995;SDS011;26723;57.478;12.066;2022-12-10T09:43:09;1.90;;;1.80;;
40995;SDS011;26723;57.478;12.066;2022-12-10T09:46:26;2.20;;;2.00;;
40995;SDS011;26723;57.478;12.066;2022-12-10T09:49:47;2.03;;;1.87;;
40995;SDS011;26723;57.478;12.066;2022-12-10T09:53:02;2.20;;;2.10;;
40995;SDS011;26723;57.478;12.066;2022-12-10T09:56:17;2.10;;;1.90;;
40995;SDS011;26723;57.478;12.066;2022-12-10T09:59:29;1.90;;;1.80;;
40995;SDS011;26723;57.478;12.066;2022-12-10T10:02:40;2.37;;;2.17;;
40995;SDS011;26723;57.478;12.066;2022-12-10T10:05:49;1.93;;;1.83;;
40995;SDS011;26723;57.478;12.066;2022-12-10T10:09:01;1.80;;;1.70;;
40995;SDS011;26723;57.478;12.066;2022-12-10T10:12:12;2.00;;;1.80;;
40995;SDS011;26723;57.478;12.066;2022-12-10T10:15:24;1.97;;;1.77;;
40995;SDS011;26723;57.478;12.066;2022-12-10T10:18:37;2.70;;;1.80;;
40995;SDS011;26723;57.478;12.066;2022-12-10T10:21:48;1.53;;;1.50;;
40995;SDS011;26723;57.478;12.066;2022-12-10T10:24:58;1.90;;;1.80;;
40995;SDS011;26723;57.478;12.066;2022-12-10T10:28:12;2.83;;;2.53;;
40995;SDS011;26723;57.478;12.066;2022-12-10T10:31:26;1.90;;;1.80;;
40995;SDS011;26723;57.478;12.066;2022-12-10T10:34:38;2.03;;;1.70;;
40995;SDS011;26723;57.478;12.066;2022-12-10T10:37:47;1.90;;;1.80;;
40995;SDS011;26723;57.478;12.066;2022-12-10T10:40:55;1.60;;;1.50;;
40995;SDS011;26723;57.478;12.066;2022-12-10T10:44:11;1.93;;;1.83;;
40995;SDS011;26723;57.478;12.066;2022-12-10T10:47:26;2.10;;;1.87;;
40995;SDS011;26723;57.478;12.066;2022-12-10T10:50:41;2.00;;;1.90;;
40995;SDS011;26723;57.478;12.066;2022-12-10T10:53:51;1.87;;;1.77;;
40995;SDS011;26723;57.478;12.066;2022-12-10T10:57:01;1.80;;;1.70;;
40995;SDS011;26723;57.478;12.066;2022-12-10T11:00:18;1.60;;;1.50;;
40995;SDS011;26723;57.478;12.066;2022-12-10T11:03:30;2.07;;;1.97;;
40995;SDS011;26723;57.478;12.066;2022-12-10T11:06:41;1.60;;;1.50;;
40995;SDS011;26723;57.478;12.066;2022-12-10T11:09:51;1.70;;;1.60;;
40995;SDS011;26723;57.478;12.066;2022-12-10T11:13:03;1.80;;;1.70;;
40995;SDS011;26723;57.478;12.066;2022-12-10T11:16:18;1.50;;;1.40;;
40995;SDS011;26723;57.478;12.066;2022-12-10T11:19:28;1.33;;;1.23;;
40995;SDS011;26723;57.478;12.066;2022-12-10T11:22:36;1.60;;;1.50;;
40995;SDS011;26723;57.478;12.066;2022-12-10T11:25:57;1.27;;;1.27;;
40995;SDS011;26723;57.478;12.066;2022-12-10T11:29:17;1.60;;;1.50;;
40995;SDS011;26723;57.478;12.066;2022-12-10T11:32:38;1.30;;;1.20;;
40995;SDS011;26723;57.478;12.066;2022-12-10T11:35:58;1.50;;;1.40;;
40995;SDS011;26723;57.478;12.066;2022-12-10T11:39:17;1.60;;;1.53;;
40995;SDS011;26723;57.478;12.066;2022-12-10T11:42:38;1.40;;;1.30;;
40995;SDS011;26723;57.478;12.066;2022-12-10T11:45:57;1.37;;;1.30;;
40995;SDS011;26723;57.478;12.066;2022-12-10T11:49:19;1.50;;;1.40;;
40995;SDS011;26723;57.478;12.066;2022-12-10T11:52:35;1.53;;;1.40;;
40995;SDS011;26723;57.478;12.066;2022-12-10T11:55:53;1.53;;;1.20;;
40995;SDS011;26723;57.478;12.066;2022-12-10T11:59:12;1.67;;;1.27;;
40995;SDS011;26723;57.478;12.066;2022-12-10T12:02:45;1.17;;;1.17;;
40995;SDS011;26723;57.478;12.066;2022-12-10T12:06:11;1.30;;;1.23;;
40995;SDS011;26723;57.478;12.066;2022-12-10T12:09:37;1.70;;;1.60;;
40995;SDS011;26723;57.478;12.066;2022-12-10T12:12:55;1.20;;;1.20;;
40995;SDS011;26723;57.478;12.066;2022-12-10T12:16:09;1.37;;;1.27;;
40995;SDS011;26723;57.478;12.066;2022-12-10T12:19:22;1.60;;;1.50;;
40995;SDS011;26723;57.478;12.066;2022-12-10T12:22:37;1.13;;;1.10;;
40995;SDS011;26723;57.478;12.066;2022-12-10T12:25:50;1.40;;;1.30;;
40995;SDS011;26723;57.478;12.066;2022-12-10T12:29:05;1.10;;;1.10;;
40995;SDS011;26723;57.478;12.066;2022-12-10T12:32:21;1.37;;;1.30;;
40995;SDS011;26723;57.478;12.066;2022-12-10T12:35:36;2.00;;;1.10;;
40995;SDS011;26723;57.478;12.066;2022-12-10T12:38:51;1.10;;;1.10;;
40995;SDS011;26723;57.478;12.066;2022-12-10T12:42:06;1.20;;;1.10;;
40995;SDS011;26723;57.478;12.066;2022-12-10T12:45:28;1.20;;;1.20;;
40995;SDS011;26723;57.478;12.066;2022-12-10T12:48:41;0.90;;;0.90;;
40995;SDS011;26723;57.478;12.066;2022-12-10T12:51:55;1.70;;;1.60;;
40995;SDS011;26723;57.478;12.066;2022-12-10T12:55:13;1.73;;;1.30;;
40995;SDS011;26723;57.478;12.066;2022-12-10T12:58:27;1.20;;;1.10;;
40995;SDS011;26723;57.478;12.066;2022-12-10T13:01:43;1.53;;;1.40;;
40995;SDS011;26723;57.478;12.066;2022-12-10T13:04:58;1.27;;;1.27;;
40995;SDS011;26723;57.478;12.066;2022-12-10T13:08:24;0.97;;;0.97;;
40995;SDS011;26723;57.478;12.066;2022-12-10T13:11:37;1.17;;;1.10;;
40995;SDS011;26723;57.478;12.066;2022-12-10T13:15:11;1.10;;;1.10;;
40995;SDS011;26723;57.478;12.066;2022-12-10T13:21:57;1.30;;;1.30;;
40995;SDS011;26723;57.478;12.066;2022-12-10T13:25:12;1.00;;;1.00;;
40995;SDS011;26723;57.478;12.066;2022-12-10T13:28:28;1.20;;;1.20;;
40995;SDS011;26723;57.478;12.066;2022-12-10T13:31:38;1.50;;;1.40;;
40995;SDS011;26723;57.478;12.066;2022-12-10T13:34:46;1.30;;;1.30;;
40995;SDS011;26723;57.478;12.066;2022-12-10T13:38:38;1.23;;;1.23;;
40995;SDS011;26723;57.478;12.066;2022-12-10T13:45:50;1.23;;;1.17;;
40995;SDS011;26723;57.478;12.066;2022-12-10T13:49:28;1.40;;;1.30;;
40995;SDS011;26723;57.478;12.066;2022-12-10T13:52:41;1.03;;;1.03;;
40995;SDS011;26723;57.478;12.066;2022-12-10T13:55:59;1.50;;;1.40;;
40995;SDS011;26723;57.478;12.066;2022-12-10T13:59:17;1.73;;;1.40;;
40995;SDS011;26723;57.478;12.066;2022-12-10T14:02:41;1.70;;;1.60;;
40995;SDS011;26723;57.478;12.066;2022-12-10T14:06:06;1.40;;;1.30;;
40995;SDS011;26723;57.478;12.066;2022-12-10T14:09:23;1.60;;;1.50;;
40995;SDS011;26723;57.478;12.066;2022-12-10T14:12:33;1.60;;;1.50;;
40995;SDS011;26723;57.478;12.066;2022-12-10T14:15:46;1.00;;;1.00;;
40995;SDS011;26723;57.478;12.066;2022-12-10T14:19:03;1.77;;;1.67;;
40995;SDS011;26723;57.478;12.066;2022-12-10T14:22:15;1.67;;;1.57;;
40995;SDS011;26723;57.478;12.066;2022-12-10T14:25:26;1.60;;;1.50;;
40995;SDS011;26723;57.478;12.066;2022-12-10T14:28:37;1.60;;;1.50;;
40995;SDS011;26723;57.478;12.066;2022-12-10T14:31:47;1.60;;;1.50;;
40995;SDS011;26723;57.478;12.066;2022-12-10T14:34:58;2.70;;;1.67;;
40995;SDS011;26723;57.478;12.066;2022-12-10T14:38:12;1.43;;;1.43;;
40995;SDS011;26723;57.478;12.066;2022-12-10T14:41:27;1.80;;;1.67;;
40995;SDS011;26723;57.478;12.066;2022-12-10T14:44:46;1.63;;;1.53;;
40995;SDS011;26723;57.478;12.066;2022-12-10T14:48:02;1.80;;;1.70;;
40995;SDS011;26723;57.478;12.066;2022-12-10T14:51:16;1.93;;;1.77;;
40995;SDS011;26723;57.478;12.066;2022-12-10T14:54:27;2.03;;;1.80;;
40995;SDS011;26723;57.478;12.066;2022-12-10T14:57:38;1.60;;;1.50;;
40995;SDS011;26723;57.478;12.066;2022-12-10T15:00:49;1.80;;;1.70;;
40995;SDS011;26723;57.478;12.066;2022-12-10T15:03:59;1.80;;;1.70;;
40995;SDS011;26723;57.478;12.066;2022-12-10T15:07:12;3.10;;;2.07;;
40995;SDS011;26723;57.478;12.066;2022-12-10T15:10:24;3.37;;;2.07;;
40995;SDS011;26723;57.478;12.066;2022-12-10T15:13:37;4.03;;;2.30;;
40995;SDS011;26723;57.478;12.066;2022-12-10T15:16:47;1.90;;;1.80;;
40995;SDS011;26723;57.478;12.066;2022-12-10T15:19:56;2.13;;;1.97;;
40995;SDS011;26723;57.478;12.066;2022-12-10T15:23:12;1.70;;;1.60;;
40995;SDS011;26723;57.478;12.066;2022-12-10T15:26:28;1.90;;;1.80;;
40995;SDS011;26723;57.478;12.066;2022-12-10T15:29:39;2.63;;;1.70;;
40995;SDS011;26723;57.478;12.066;2022-12-10T15:32:48;2.00;;;1.87;;
40995;SDS011;26723;57.478;12.066;2022-12-10T15:35:56;1.73;;;1.63;;
40995;SDS011;26723;57.478;12.066;2022-12-10T15:39:12;2.27;;;2.17;;
40995;SDS011;26723;57.478;12.066;2022-12-10T15:42:30;2.70;;;2.50;;
40995;SDS011;26723;57.478;12.066;2022-12-10T15:45:49;3.23;;;2.17;;
40995;SDS011;26723;57.478;12.066;2022-12-10T15:48:57;3.00;;;2.23;;
40995;SDS011;26723;57.478;12.066;2022-12-10T15:52:06;3.40;;;2.47;;
40995;SDS011;26723;57.478;12.066;2022-12-10T15:55:19;2.20;;;2.10;;
40995;SDS011;26723;57.478;12.066;2022-12-10T15:58:27;2.57;;;2.37;;
40995;SDS011;26723;57.478;12.066;2022-12-10T16:01:35;1.80;;;1.70;;
40995;SDS011;26723;57.478;12.066;2022-12-10T16:04:44;2.00;;;1.90;;
40995;SDS011;26723;57.478;12.066;2022-12-10T16:07:53;2.40;;;2.20;;
40995;SDS011;26723;57.478;12.066;2022-12-10T16:11:09;2.20;;;2.00;;
40995;SDS011;26723;57.478;12.066;2022-12-10T16:14:22;1.90;;;1.80;;
40995;SDS011;26723;57.478;12.066;2022-12-10T16:17:31;2.07;;;1.97;;
40995;SDS011;26723;57.478;12.066;2022-12-10T16:20:39;1.80;;;1.70;;
40995;SDS011;26723;57.478;12.066;2022-12-10T16:23:48;3.17;;;2.97;;
40995;SDS011;26723;57.478;12.066;2022-12-10T16:26:57;2.60;;;2.40;;
40995;SDS011;26723;57.478;12.066;2022-12-10T16:30:10;2.53;;;2.30;;
40995;SDS011;26723;57.478;12.066;2022-12-10T16:33:22;2.00;;;1.90;;
40995;SDS011;26723;57.478;12.066;2022-12-10T16:36:31;2.60;;;2.40;;
40995;SDS011;26723;57.478;12.066;2022-12-10T16:39:39;2.57;;;2.27;;
40995;SDS011;26723;57.478;12.066;2022-12-10T16:42:58;3.30;;;2.87;;
40995;SDS011;26723;57.478;12.066;2022-12-10T16:46:08;2.83;;;2.60;;
40995;SDS011;26723;57.478;12.066;2022-12-10T16:49:18;3.13;;;2.80;;
40995;SDS011;26723;57.478;12.066;2022-12-10T16:52:26;3.47;;;2.93;;
40995;SDS011;26723;57.478;12.066;2022-12-10T16:55:34;2.97;;;2.77;;
40995;SDS011;26723;57.478;12.066;2022-12-10T16:58:44;4.33;;;3.50;;
40995;SDS011;26723;57.478;12.066;2022-12-10T17:01:53;3.30;;;3.00;;
40995;SDS011;26723;57.478;12.066;2022-12-10T17:05:01;2.63;;;2.50;;
40995;SDS011;26723;57.478;12.066;2022-12-10T17:08:10;3.40;;;3.00;;
40995;SDS011;26723;57.478;12.066;2022-12-10T17:11:19;4.07;;;3.33;;
40995;SDS011;26723;57.478;12.066;2022-12-10T17:14:48;3.97;;;2.90;;
40995;SDS011;26723;57.478;12.066;2022-12-10T17:17:57;2.63;;;2.40;;
40995;SDS011;26723;57.478;12.066;2022-12-10T17:21:08;2.40;;;2.27;;
40995;SDS011;26723;57.478;12.066;2022-12-10T17:24:16;2.40;;;2.20;;
40995;SDS011;26723;57.478;12.066;2022-12-10T17:27:25;2.73;;;2.17;;
40995;SDS011;26723;57.478;12.066;2022-12-10T17:30:34;3.30;;;2.30;;
40995;SDS011;26723;57.478;12.066;2022-12-10T17:33:42;3.50;;;3.07;;
40995;SDS011;26723;57.478;12.066;2022-12-10T17:36:57;2.53;;;2.43;;
40995;SDS011;26723;57.478;12.066;2022-12-10T17:40:09;2.93;;;2.73;;
40995;SDS011;26723;57.478;12.066;2022-12-10T17:43:21;2.70;;;2.50;;
40995;SDS011;26723;57.478;12.066;2022-12-10T17:46:32;2.87;;;2.53;;
40995;SDS011;26723;57.478;12.066;2022-12-10T17:49:41;2.60;;;2.40;;
40995;SDS011;26723;57.478;12.066;2022-12-10T17:52:49;2.90;;;2.50;;
40995;SDS011;26723;57.478;12.066;2022-12-10T17:55:58;2.80;;;2.60;;
40995;SDS011;26723;57.478;12.066;2022-12-10T17:59:07;2.90;;;2.60;;
40995;SDS011;26723;57.478;12.066;2022-12-10T18:02:21;3.17;;;2.60;;
40995;SDS011;26723;57.478;12.066;2022-12-10T18:05:29;2.40;;;2.20;;
40995;SDS011;26723;57.478;12.066;2022-12-10T18:08:38;2.43;;;2.23;;
40995;SDS011;26723;57.478;12.066;2022-12-10T18:11:46;2.50;;;2.30;;
40995;SDS011;26723;57.478;12.066;2022-12-10T18:14:54;2.30;;;2.10;;
40995;SDS011;26723;57.478;12.066;2022-12-10T18:18:04;2.50;;;2.20;;
40995;SDS011;26723;57.478;12.066;2022-12-10T18:21:14;2.50;;;2.30;;
40995;SDS011;26723;57.478;12.066;2022-12-10T18:24:23;2.87;;;2.67;;
40995;SDS011;26723;57.478;12.066;2022-12-10T18:27:31;2.40;;;2.20;;
40995;SDS011;26723;57.478;12.066;2022-12-10T18:30:40;3.27;;;2.30;;
40995;SDS011;26723;57.478;12.066;2022-12-10T18:33:50;2.83;;;2.03;;
40995;SDS011;26723;57.478;12.066;2022-12-10T18:37:00;2.53;;;2.33;;
40995;SDS011;26723;57.478;12.066;2022-12-10T18:40:12;3.00;;;2.60;;
40995;SDS011;26723;57.478;12.066;2022-12-10T18:43:23;3.10;;;2.50;;
40995;SDS011;26723;57.478;12.066;2022-12-10T18:46:31;2.70;;;2.50;;
40995;SDS011;26723;57.478;12.066;2022-12-10T18:49:44;5.20;;;2.60;;
40995;SDS011;26723;57.478;12.066;2022-12-10T18:52:52;4.90;;;3.27;;
40995;SDS011;26723;57.478;12.066;2022-12-10T18:56:01;3.70;;;2.90;;
40995;SDS011;26723;57.478;12.066;2022-12-10T18:59:12;3.13;;;2.83;;
40995;SDS011;26723;57.478;12.066;2022-12-10T19:02:22;4.20;;;3.80;;
40995;SDS011;26723;57.478;12.066;2022-12-10T19:05:32;3.23;;;2.67;;